Time;durP1;ratioP1;P1;durP2;ratioP2;P2;SDS_P1;SDS_P2;PMS_P1;PMS_P2;Temp;Humidity;BMP_temperature;BMP_pressure;BME280_temperature;BME280_humidity;BME280_pressure;Samples;Min_cycle;Max_cycle;Signal;HPM_P1;HPM_P2
2022/11/15 00:01:37;;;;;;;45.70;17.33;;;;;;;6.92;100.00;100850.50;5008100;28;20056;-79
2022/11/15 00:04:05;;;;;;;40.35;17.20;;;;;;;6.93;100.00;100849.63;5008571;28;20412;-79
2022/11/15 00:06:30;;;;;;;41.92;17.65;;;;;;;6.98;100.00;100842.72;5010591;28;20105;-79
2022/11/15 00:08:58;;;;;;;40.90;16.95;;;;;;;7.02;100.00;100848.72;5008698;28;20164;-79
2022/11/15 00:11:24;;;;;;;39.75;17.27;;;;;;;7.04;100.00;100842.66;5008003;28;20515;-79
2022/11/15 00:13:49;;;;;;;37.70;16.92;;;;;;;7.08;100.00;100846.06;5008288;28;20022;-79
2022/11/15 00:16:15;;;;;;;40.42;17.27;;;;;;;7.09;100.00;100834.91;5013008;28;20038;-79
2022/11/15 00:18:40;;;;;;;41.70;18.25;;;;;;;7.14;100.00;100835.72;5008480;28;20041;-79
2022/11/15 00:21:11;;;;;;;39.17;16.83;;;;;;;7.19;100.00;100844.25;5008494;28;20022;-79
2022/11/15 00:23:37;;;;;;;40.85;16.88;;;;;;;7.23;100.00;100842.50;5009102;28;20042;-79
2022/11/15 00:26:03;;;;;;;39.97;17.23;;;;;;;7.26;100.00;100837.28;5006797;28;20048;-79
2022/11/15 00:28:29;;;;;;;41.20;17.98;;;;;;;7.28;100.00;100846.72;4990668;28;20400;-79
2022/11/15 00:31:00;;;;;;;40.33;17.45;;;;;;;7.35;100.00;100837.22;5010021;28;20048;-79
2022/11/15 00:33:26;;;;;;;38.55;16.90;;;;;;;7.39;100.00;100836.28;5007579;28;20048;-79
2022/11/15 00:35:51;;;;;;;38.80;17.15;;;;;;;7.42;100.00;100836.28;5007227;28;20403;-79
2022/11/15 00:38:16;;;;;;;38.30;17.08;;;;;;;7.44;100.00;100832.78;5008233;28;20117;-79
2022/11/15 00:40:42;;;;;;;40.78;17.50;;;;;;;7.47;100.00;100831.91;5008333;28;20035;-79
2022/11/15 00:43:07;;;;;;;37.28;17.05;;;;;;;7.53;100.00;100835.28;5006298;28;20037;-79
2022/11/15 00:45:32;;;;;;;40.83;17.73;;;;;;;7.53;100.00;100831.84;5013116;28;20455;-79
2022/11/15 00:47:58;;;;;;;39.08;16.52;;;;;;;7.61;100.00;100829.19;5011886;28;20073;-79
2022/11/15 00:50:23;;;;;;;37.28;16.42;;;;;;;7.62;100.00;100828.31;5008882;28;20026;-79
2022/11/15 00:52:48;;;;;;;36.17;16.50;;;;;;;7.66;100.00;100825.66;5009098;28;20458;-79
2022/11/15 00:55:16;;;;;;;37.97;17.13;;;;;;;7.71;100.00;100825.63;5006921;28;20037;-79
2022/11/15 00:57:41;;;;;;;37.00;16.92;;;;;;;7.74;100.00;100823.00;5007463;28;20018;-79
2022/11/15 01:00:07;;;;;;;35.67;16.65;;;;;;;7.75;100.00;100817.81;5008203;28;20026;-79
2022/11/15 01:02:32;;;;;;;36.83;16.95;;;;;;;7.78;100.00;100814.38;5009970;28;20095;-79
2022/11/15 01:04:58;;;;;;;42.70;17.75;;;;;;;7.84;100.00;100815.13;5008563;28;20057;-79
2022/11/15 01:07:23;;;;;;;33.05;15.93;;;;;;;7.86;100.00;100813.38;5008862;28;20076;-79
2022/11/15 01:09:48;;;;;;;37.95;16.92;;;;;;;7.92;100.00;100815.88;5008661;28;20025;-79
2022/11/15 01:12:14;;;;;;;32.85;16.38;;;;;;;7.97;100.00;100814.97;4992473;28;20053;-79
2022/11/15 01:14:39;;;;;;;36.50;16.67;;;;;;;8.01;100.00;100816.63;5012325;28;20483;-79
2022/11/15 01:17:04;;;;;;;33.50;16.40;;;;;;;8.01;100.00;100807.16;5005617;28;20029;-79
2022/11/15 01:19:30;;;;;;;35.22;16.67;;;;;;;8.06;100.00;100807.94;4995082;28;20072;-79
2022/11/15 01:21:55;;;;;;;35.28;16.58;;;;;;;8.08;100.00;100800.16;5011778;28;20061;-79
2022/11/15 01:24:20;;;;;;;35.37;16.93;;;;;;;8.12;100.00;100801.84;5010155;28;20116;-79
2022/11/15 01:26:45;;;;;;;35.75;16.52;;;;;;;8.14;100.00;100792.34;5011747;28;20346;-79
2022/11/15 01:29:11;;;;;;;35.70;16.92;;;;;;;8.15;100.00;100787.16;5013112;28;20068;-79
2022/11/15 01:31:36;;;;;;;39.55;17.80;;;;;;;8.24;100.00;100801.66;5009605;28;20057;-79
2022/11/15 01:34:02;;;;;;;35.25;16.70;;;;;;;8.25;100.00;100796.50;5012045;28;20037;-79
2022/11/15 01:36:27;;;;;;;36.13;16.63;;;;;;;8.25;100.00;100790.47;5011170;28;20036;-79
2022/11/15 01:38:57;;;;;;;37.72;17.02;;;;;;;8.24;100.00;100776.69;5011311;28;20046;-79
2022/11/15 01:41:26;;;;;;;35.38;16.58;;;;;;;8.26;100.00;100780.09;5009902;28;20036;-79
2022/11/15 01:43:54;;;;;;;34.35;16.35;;;;;;;8.26;100.00;100780.09;5016035;28;20499;-79
2022/11/15 01:46:36;;;;;;;37.45;16.77;;;;;;;8.29;100.00;100780.06;5012404;28;20041;-79
2022/11/15 01:49:11;;;;;;;34.65;16.42;;;;;;;8.30;100.00;100783.50;5011889;28;20025;-79
2022/11/15 01:51:37;;;;;;;30.88;15.43;;;;;;;8.32;100.00;100784.38;5011080;28;20088;-79
2022/11/15 01:54:08;;;;;;;33.90;16.60;;;;;;;8.32;100.00;100779.19;5011524;28;20022;-79
2022/11/15 01:56:43;;;;;;;33.70;16.67;;;;;;;8.34;100.00;100785.19;5009287;28;20037;-79
2022/11/15 01:59:10;;;;;;;34.13;16.35;;;;;;;8.37;100.00;100781.69;5011020;28;20060;-79
2022/11/15 02:01:36;;;;;;;34.75;16.27;;;;;;;8.38;100.00;100779.09;5010838;28;20629;-79
2022/11/15 02:04:13;;;;;;;33.10;16.23;;;;;;;8.41;100.00;100779.03;5010686;28;20469;-79
2022/11/15 02:06:40;;;;;;;34.22;16.02;;;;;;;8.46;100.00;100784.97;5009765;28;20046;-78
2022/11/15 02:09:06;;;;;;;35.00;17.05;;;;;;;8.49;100.00;100787.53;5011059;28;20029;-78
2022/11/15 02:11:32;;;;;;;36.50;17.02;;;;;;;8.53;100.00;100778.00;5007904;28;20030;-78
2022/11/15 02:13:59;;;;;;;33.45;17.17;;;;;;;8.58;100.00;100779.63;5010412;28;20025;-79
2022/11/15 02:16:41;;;;;;;37.00;16.75;;;;;;;8.64;100.00;100769.19;5010830;28;20052;-79
2022/11/15 02:19:38;;;;;;;34.53;15.85;;;;;;;8.67;100.00;100765.69;5010946;28;20036;-76
2022/11/15 02:22:29;;;;;;;33.30;15.93;;;;;;;8.73;100.00;100767.34;5005035;28;20022;-76
2022/11/15 02:25:09;;;;;;;32.63;15.82;;;;;;;8.74;100.00;100756.94;5009560;28;20113;-76
2022/11/15 02:27:56;;;;;;;33.30;16.85;;;;;;;8.79;100.00;100754.31;4996353;28;20029;-76
2022/11/15 02:30:43;;;;;;;37.42;16.60;;;;;;;8.82;100.00;100756.81;5009557;28;20030;-76
2022/11/15 02:33:41;;;;;;;33.33;16.70;;;;;;;8.85;100.00;100749.88;5008724;28;20029;-76
2022/11/15 02:36:18;;;;;;;32.30;16.70;;;;;;;8.89;100.00;100753.25;5012129;28;20120;-76
2022/11/15 02:39:07;;;;;;;33.75;16.58;;;;;;;8.92;100.00;100755.78;5009854;28;20026;-76
2022/11/15 02:41:51;;;;;;;34.33;16.00;;;;;;;8.96;100.00;100749.66;5009815;28;20030;-76
2022/11/15 02:44:24;;;;;;;36.25;17.08;;;;;;;8.99;100.00;100754.78;5011263;28;20106;-76
2022/11/15 02:47:12;;;;;;;37.00;17.63;;;;;;;9.02;100.00;100749.53;5010953;28;20022;-76
2022/11/15 02:49:41;;;;;;;35.25;16.40;;;;;;;9.06;100.00;100743.47;4993437;28;20038;-78
2022/11/15 02:52:06;;;;;;;34.08;16.60;;;;;;;9.08;100.00;100739.09;5008781;28;20057;-78
2022/11/15 02:54:33;;;;;;;31.63;16.75;;;;;;;9.09;100.00;100735.63;5002743;28;20053;-78
2022/11/15 02:57:06;;;;;;;38.95;17.05;;;;;;;9.13;100.00;100734.69;5009135;28;20380;-78
2022/11/15 02:59:47;;;;;;;32.60;16.40;;;;;;;9.16;100.00;100738.94;5002525;28;20029;-78
2022/11/15 03:02:20;;;;;;;36.92;17.58;;;;;;;9.19;100.00;100734.56;5007354;28;20038;-78
2022/11/15 03:04:56;;;;;;;36.50;16.65;;;;;;;9.19;100.00;100734.56;5015581;28;20037;-78
2022/11/15 03:07:46;;;;;;;33.22;16.15;;;;;;;9.24;100.00;100731.88;5010097;28;20049;-78
2022/11/15 03:10:35;;;;;;;32.47;16.10;;;;;;;9.27;100.00;100740.47;5009485;28;20155;-78
2022/11/15 03:13:04;;;;;;;39.70;16.75;;;;;;;9.30;100.00;100724.84;4993024;28;20025;-78
2022/11/15 03:15:33;;;;;;;34.33;17.15;;;;;;;9.29;100.00;100714.53;4992206;28;20108;-79
2022/11/15 03:18:01;;;;;;;34.40;16.73;;;;;;;9.30;100.00;100719.69;5006504;28;20107;-79
2022/11/15 03:20:29;;;;;;;35.67;17.65;;;;;;;9.32;100.00;100724.84;4994982;28;20030;-79
2022/11/15 03:22:59;;;;;;;34.00;17.15;;;;;;;9.35;100.00;100723.03;5010481;28;20057;-78
2022/11/15 03:25:28;;;;;;;34.75;16.50;;;;;;;9.35;100.00;100725.59;5005222;28;20037;-78
2022/11/15 03:27:57;;;;;;;33.95;16.17;;;;;;;9.36;100.00;100726.47;5010590;28;20106;-78
2022/11/15 03:30:22;;;;;;;33.00;16.60;;;;;;;9.38;100.00;100729.88;5009698;28;20030;-78
2022/11/15 03:32:53;;;;;;;33.03;16.42;;;;;;;9.35;100.00;100725.59;5009528;28;20018;-78
2022/11/15 03:35:21;;;;;;;33.80;16.58;;;;;;;9.39;100.00;100732.44;5008182;28;20030;-78
2022/11/15 03:37:58;;;;;;;33.03;16.40;;;;;;;9.40;100.00;100734.16;5010482;28;20025;-78
2022/11/15 03:40:53;;;;;;;35.67;16.77;;;;;;;9.42;100.00;100732.34;5009131;28;20492;-78
2022/11/15 03:43:42;;;;;;;33.07;16.33;;;;;;;9.44;100.00;100740.09;5009247;28;20084;-78
2022/11/15 03:46:19;;;;;;;31.92;15.40;;;;;;;9.42;100.00;100734.94;4992602;28;20371;-78
2022/11/15 03:48:51;;;;;;;34.90;16.33;;;;;;;9.46;100.00;100728.00;5003391;28;20431;-78
2022/11/15 03:51:17;;;;;;;36.17;16.73;;;;;;;9.50;100.00;100732.19;5009369;28;20037;-78
2022/11/15 03:53:42;;;;;;;33.78;16.20;;;;;;;9.50;100.00;100727.88;5010298;28;20022;-78
2022/11/15 03:56:08;;;;;;;32.97;17.15;;;;;;;9.52;100.00;100726.13;5009246;28;20026;-78
2022/11/15 03:58:33;;;;;;;33.80;15.70;;;;;;;9.55;100.00;100726.94;5009132;28;20989;-78
2022/11/15 04:00:59;;;;;;;33.63;16.27;;;;;;;9.58;100.00;100726.88;5009315;28;20021;-78
2022/11/15 04:03:24;;;;;;;33.35;16.02;;;;;;;9.60;100.00;100732.88;5008054;28;20400;-78
2022/11/15 04:05:50;;;;;;;36.63;16.73;;;;;;;9.61;100.00;100729.41;5008011;28;20050;-78
2022/11/15 04:08:15;;;;;;;35.65;16.10;;;;;;;9.64;100.00;100730.19;5009961;28;20045;-78
2022/11/15 04:10:41;;;;;;;35.53;17.50;;;;;;;9.64;100.00;100725.00;5009364;28;20424;-78
2022/11/15 04:13:06;;;;;;;32.72;15.70;;;;;;;9.61;100.00;100726.81;4992310;28;20068;-78
2022/11/15 04:15:32;;;;;;;36.70;16.77;;;;;;;9.67;100.00;100729.28;5005327;28;20037;-78
2022/11/15 04:17:57;;;;;;;37.42;17.08;;;;;;;9.69;100.00;100730.09;5007258;28;20040;-78
2022/11/15 04:26:00;;;;;;;33.30;16.05;;;;;;;9.72;100.00;100723.09;5004584;28;20040;-78
2022/11/15 04:28:25;;;;;;;33.90;16.63;;;;;;;9.73;100.00;100724.81;5008475;28;20480;-78
2022/11/15 04:30:50;;;;;;;38.85;17.50;;;;;;;9.73;100.00;100729.97;5008810;28;20037;-78
2022/11/15 04:33:16;;;;;;;42.90;18.27;;;;;;;9.74;100.00;100717.91;5006653;28;20018;-78
2022/11/15 04:35:42;;;;;;;41.85;17.17;;;;;;;9.75;100.00;100720.47;5007819;28;20037;-78
2022/11/15 04:38:09;;;;;;;38.67;16.98;;;;;;;9.75;100.00;100725.63;5008731;28;20214;-78
2022/11/15 04:40:36;;;;;;;37.20;16.42;;;;;;;9.73;100.00;100717.03;5008163;28;20452;-78
2022/11/15 04:43:01;;;;;;;38.15;17.27;;;;;;;9.70;100.00;100724.84;5009313;28;20575;-78
2022/11/15 04:45:26;;;;;;;33.80;15.90;;;;;;;9.69;100.00;100728.31;5010051;28;20034;-78
2022/11/15 04:47:52;;;;;;;39.20;17.25;;;;;;;9.70;100.00;100732.63;5008682;28;20022;-78
2022/11/15 04:50:17;;;;;;;39.70;17.58;;;;;;;9.74;100.00;100723.94;4998958;28;20022;-78
2022/11/15 04:52:49;;;;;;;36.28;16.70;;;;;;;9.77;100.00;100738.50;5012176;28;20065;-78
2022/11/15 04:55:14;;;;;;;40.85;18.17;;;;;;;9.78;100.00;100727.28;5012726;28;20030;-78
2022/11/15 04:57:40;;;;;;;40.55;17.98;;;;;;;9.77;100.00;100728.16;5012223;28;20064;-78
2022/11/15 05:00:08;;;;;;;36.25;17.60;;;;;;;9.80;100.00;100728.09;5013783;28;20499;-78
2022/11/15 05:05:17;;;;;;;40.77;18.07;;;;;;;9.86;100.00;100720.19;5006244;28;20049;-79
2022/11/15 05:07:43;;;;;;;41.00;18.02;;;;;;;9.85;100.00;100721.94;5011641;28;20296;-78
2022/11/15 05:10:08;;;;;;;40.35;17.83;;;;;;;9.88;100.00;100723.63;5012389;28;20018;-78
2022/11/15 05:12:34;;;;;;;39.25;17.02;;;;;;;9.86;100.00;100722.78;5012174;28;20021;-78
2022/11/15 05:14:59;;;;;;;43.15;18.98;;;;;;;9.88;100.00;100716.69;5009045;28;20177;-78
2022/11/15 05:17:24;;;;;;;40.50;18.17;;;;;;;9.90;100.00;100721.81;5012102;28;20025;-78
2022/11/15 05:19:51;;;;;;;38.30;17.42;;;;;;;9.88;100.00;100723.63;5010202;28;20044;-78
2022/11/15 05:22:17;;;;;;;36.65;17.65;;;;;;;9.87;100.00;100715.00;5011405;28;20049;-78
2022/11/15 05:24:42;;;;;;;39.65;18.33;;;;;;;9.84;100.00;100720.22;5010602;28;20029;-78
2022/11/15 05:27:07;;;;;;;42.33;17.40;;;;;;;9.82;100.00;100705.63;5013219;28;20739;-78
2022/11/15 05:29:33;;;;;;;39.50;18.13;;;;;;;9.85;100.00;100709.00;4998225;28;20029;-78
2022/11/15 05:31:58;;;;;;;40.22;18.08;;;;;;;9.88;100.00;100716.69;4993025;28;20920;-78
2022/11/15 05:34:25;;;;;;;40.38;17.55;;;;;;;9.87;100.00;100715.00;5001263;28;20029;-78
2022/11/15 05:36:50;;;;;;;37.40;16.92;;;;;;;9.89;100.00;100713.19;5011880;28;20277;-78
2022/11/15 05:39:16;;;;;;;38.22;18.05;;;;;;;9.90;100.00;100706.28;5011013;28;20025;-78
2022/11/15 05:41:45;;;;;;;42.28;18.33;;;;;;;9.91;100.00;100714.03;5011674;28;20038;-78
2022/11/15 05:44:16;;;;;;;43.00;19.23;;;;;;;9.96;100.00;100703.59;5009261;28;20105;-78
2022/11/15 05:46:42;;;;;;;39.42;17.65;;;;;;;9.98;100.00;100704.38;5011995;28;20273;-78
2022/11/15 05:49:12;;;;;;;37.22;17.38;;;;;;;9.96;100.00;100706.19;5010620;28;20040;-78
2022/11/15 05:51:39;;;;;;;39.95;17.90;;;;;;;9.97;100.00;100710.44;5009961;28;20073;-78
2022/11/15 05:54:05;;;;;;;40.50;17.67;;;;;;;9.99;100.00;100707.81;5008531;28;20036;-78
2022/11/15 05:56:30;;;;;;;39.47;16.70;;;;;;;10.02;100.00;100715.53;4994023;28;20021;-78
2022/11/15 05:58:58;;;;;;;37.67;17.63;;;;;;;10.01;100.00;100708.66;5011697;28;20443;-78
2022/11/15 06:01:25;;;;;;;36.20;17.00;;;;;;;10.01;100.00;100712.09;5010943;28;20037;-78
2022/11/15 06:03:50;;;;;;;37.03;17.13;;;;;;;10.01;100.00;100709.50;5011484;28;20096;-78
2022/11/15 06:06:15;;;;;;;38.60;16.98;;;;;;;10.00;100.00;100715.56;5010490;28;20042;-78
2022/11/15 06:08:41;;;;;;;37.25;16.33;;;;;;;10.00;100.00;100710.38;5009663;28;20034;-78
2022/11/15 06:11:07;;;;;;;32.22;15.90;;;;;;;10.01;100.00;100722.44;5010786;28;20056;-78
2022/11/15 06:13:33;;;;;;;32.70;16.15;;;;;;;10.00;100.00;100718.16;4993741;28;20029;-78
2022/11/15 06:15:58;;;;;;;32.40;15.68;;;;;;;9.99;100.00;100718.19;5008861;28;20500;-78
2022/11/15 06:18:24;;;;;;;32.25;15.65;;;;;;;10.02;100.00;100725.88;5010047;28;20034;-78
2022/11/15 06:20:49;;;;;;;30.60;15.27;;;;;;;10.02;100.00;100718.13;4993906;28;20510;-78
2022/11/15 06:23:15;;;;;;;35.72;15.68;;;;;;;10.02;100.00;100721.56;5004606;28;20065;-78
2022/11/15 06:25:40;;;;;;;33.80;15.45;;;;;;;10.05;100.00;100723.22;4993925;28;20438;-78
2022/11/15 06:28:05;;;;;;;37.47;16.45;;;;;;;10.07;100.00;100735.25;5008701;28;20026;-78
2022/11/15 06:30:31;;;;;;;34.17;16.10;;;;;;;10.09;100.00;100732.63;5010839;28;20029;-78
2022/11/15 06:33:04;;;;;;;31.67;14.95;;;;;;;10.08;100.00;100738.69;5009614;28;20033;-78
2022/11/15 06:35:30;;;;;;;31.98;15.02;;;;;;;10.09;100.00;100732.63;5001251;28;20412;-78
2022/11/15 06:38:01;;;;;;;33.13;14.68;;;;;;;10.09;100.00;100743.00;5006708;28;20163;-78
2022/11/15 06:40:26;;;;;;;31.92;15.40;;;;;;;10.08;100.00;100741.28;5013712;28;20834;-78
2022/11/15 06:42:57;;;;;;;36.20;15.90;;;;;;;10.08;100.00;100738.69;5010123;28;20022;-79
2022/11/15 06:45:22;;;;;;;29.55;14.63;;;;;;;10.06;100.00;100741.31;5007735;28;20307;-79
2022/11/15 06:47:48;;;;;;;32.72;15.65;;;;;;;10.03;100.00;100743.97;5009545;28;20034;-79
2022/11/15 06:50:13;;;;;;;32.10;16.27;;;;;;;10.03;100.00;100750.91;5004505;28;20112;-75
2022/11/15 06:52:39;;;;;;;32.33;15.45;;;;;;;10.03;100.00;100753.50;4994185;28;20028;-75
2022/11/15 06:55:04;;;;;;;32.22;15.75;;;;;;;10.03;100.00;100763.84;5008755;28;20156;-75
2022/11/15 06:57:30;;;;;;;33.53;15.48;;;;;;;9.95;100.00;100748.47;5008435;28;20033;-75
2022/11/15 06:59:55;;;;;;;35.40;15.98;;;;;;;10.00;100.00;100758.72;5008398;28;20032;-75
2022/11/15 07:02:20;;;;;;;31.93;15.27;;;;;;;9.98;100.00;100766.53;5007857;28;20042;-75
2022/11/15 07:04:46;;;;;;;36.97;16.10;;;;;;;9.97;100.00;100766.53;5006584;28;20957;-75
2022/11/15 07:07:11;;;;;;;38.92;15.98;;;;;;;9.94;100.00;100764.03;5001878;28;20052;-75
2022/11/15 07:09:36;;;;;;;33.20;16.23;;;;;;;9.90;100.00;100755.47;5009341;28;20072;-75
2022/11/15 07:12:02;;;;;;;31.45;15.52;;;;;;;9.91;100.00;100762.38;5016043;28;20503;-76
2022/11/15 07:14:27;;;;;;;33.85;15.52;;;;;;;9.84;100.00;100758.22;5007849;28;20033;-75
2022/11/15 07:16:52;;;;;;;33.58;15.52;;;;;;;9.84;100.00;100763.38;5009067;28;20030;-75
2022/11/15 07:19:18;;;;;;;35.05;16.08;;;;;;;9.83;100.00;100761.69;5008311;28;20034;-80
2022/11/15 07:21:43;;;;;;;36.60;15.93;;;;;;;9.82;100.00;100755.69;5007351;28;20029;-80
2022/11/15 07:24:08;;;;;;;32.85;15.23;;;;;;;9.82;100.00;100767.75;5008307;28;20018;-79
2022/11/15 07:26:34;;;;;;;36.40;15.45;;;;;;;9.82;100.00;100771.22;4994055;28;20033;-80
2022/11/15 07:28:59;;;;;;;30.77;14.10;;;;;;;9.81;100.00;100763.47;5007986;28;20112;-80
2022/11/15 07:31:25;;;;;;;31.63;15.30;;;;;;;9.82;100.00;100772.94;5011695;28;20276;-80
2022/11/15 07:33:50;;;;;;;29.92;13.77;;;;;;;9.82;100.00;100772.94;5009643;28;20340;-80
2022/11/15 07:36:16;;;;;;;34.70;14.55;;;;;;;9.83;100.00;100767.72;4998647;28;20492;-79
2022/11/15 07:38:41;;;;;;;32.00;14.93;;;;;;;9.82;100.00;100768.63;5010474;28;20073;-79
2022/11/15 07:41:07;;;;;;;29.92;15.30;;;;;;;9.85;100.00;100767.69;5009033;28;20030;-79
2022/11/15 07:43:33;;;;;;;32.95;14.95;;;;;;;9.88;100.00;100771.06;5008534;28;20572;-79
2022/11/15 07:46:03;;;;;;;30.00;14.13;;;;;;;9.89;100.00;100766.75;5009023;28;20045;-79
2022/11/15 07:48:29;;;;;;;32.72;15.00;;;;;;;9.91;100.00;100767.53;5007674;28;20025;-80
2022/11/15 07:50:54;;;;;;;32.67;14.73;;;;;;;9.93;100.00;100762.34;5007151;28;20037;-80
2022/11/15 07:53:19;;;;;;;31.40;14.48;;;;;;;9.97;100.00;100762.22;5002111;28;20480;-79
2022/11/15 07:55:45;;;;;;;30.77;14.52;;;;;;;9.98;100.00;100756.16;5005830;28;20030;-80
2022/11/15 07:58:11;;;;;;;34.90;15.63;;;;;;;10.03;100.00;100759.50;5004014;28;20022;-80
2022/11/15 08:00:37;;;;;;;32.70;15.00;;;;;;;10.07;100.00;100752.53;5008735;28;20037;-80
2022/11/15 08:03:14;;;;;;;31.00;14.68;;;;;;;10.11;100.00;100756.72;5010058;28;20057;-79
2022/11/15 08:05:41;;;;;;;35.40;14.57;;;;;;;10.15;100.00;100756.66;5006847;28;20041;-80
2022/11/15 08:08:08;;;;;;;32.05;14.98;;;;;;;10.18;100.00;100754.00;5005109;28;20048;-80
2022/11/15 08:10:35;;;;;;;31.55;14.80;;;;;;;10.23;100.00;100766.88;4988592;28;20032;-80
2022/11/15 08:13:06;;;;;;;33.33;14.18;;;;;;;10.27;100.00;100768.47;5009330;28;20033;-80
2022/11/15 08:15:32;;;;;;;29.33;13.70;;;;;;;10.30;100.00;100774.44;5009964;28;20514;-80
2022/11/15 08:18:01;;;;;;;30.33;13.45;;;;;;;10.34;100.00;100777.81;4994117;28;20022;-80
2022/11/15 08:20:29;;;;;;;27.20;12.75;;;;;;;10.36;100.00;100783.81;5013017;28;20045;-80
2022/11/15 08:22:56;;;;;;;30.10;13.63;;;;;;;10.35;100.00;100779.53;5015541;28;20116;-79
2022/11/15 08:25:21;;;;;;;27.92;12.77;;;;;;;10.37;100.00;100776.91;5015169;28;20435;-79
2022/11/15 08:27:47;;;;;;;27.05;12.82;;;;;;;10.40;100.00;100777.66;5014411;28;20476;-80
2022/11/15 08:30:13;;;;;;;26.27;12.63;;;;;;;10.41;100.00;100766.41;5014764;28;20087;-79
2022/11/15 08:32:38;;;;;;;28.20;12.13;;;;;;;10.48;100.00;100782.66;5013453;28;20072;-79
2022/11/15 08:35:04;;;;;;;26.58;12.00;;;;;;;10.53;100.00;100775.63;5014455;28;20026;-80
2022/11/15 08:37:30;;;;;;;28.13;12.00;;;;;;;10.54;100.00;100774.75;5015108;28;20029;-79
2022/11/15 08:39:55;;;;;;;23.45;11.18;;;;;;;10.49;100.00;100774.00;5013635;28;20117;-79
2022/11/15 08:42:20;;;;;;;23.00;11.23;;;;;;;10.39;100.00;100764.75;5011378;28;20742;-79
2022/11/15 08:44:45;;;;;;;25.73;11.13;;;;;;;10.35;100.00;100763.97;5012436;28;20018;-79
2022/11/15 08:47:12;;;;;;;23.35;10.65;;;;;;;10.37;100.00;100764.81;5011603;28;20037;-79
2022/11/15 08:49:37;;;;;;;20.67;10.35;;;;;;;10.45;100.00;100757.66;5012400;28;20072;-79
2022/11/15 08:52:03;;;;;;;23.08;10.30;;;;;;;10.49;100.00;100755.88;5008711;28;20035;-80
2022/11/15 08:54:28;;;;;;;19.45;10.35;;;;;;;10.51;100.00;100754.06;5010437;28;20056;-80
2022/11/15 08:56:53;;;;;;;20.23;9.93;;;;;;;10.47;100.00;100752.44;5011430;28;20022;-80
2022/11/15 08:59:19;;;;;;;18.23;9.68;;;;;;;10.41;100.00;100750.88;5009302;28;20392;-80
2022/11/15 09:01:44;;;;;;;17.63;9.10;;;;;;;10.33;100.00;100738.97;4993465;28;20030;-80
2022/11/15 09:04:09;;;;;;;17.20;8.95;;;;;;;10.27;100.00;100747.75;5007827;28;20065;-80
2022/11/15 09:06:35;;;;;;;15.25;8.45;;;;;;;10.21;100.00;100742.72;5008912;28;20483;-80
2022/11/15 09:09:01;;;;;;;16.25;8.65;;;;;;;10.15;100.00;100751.47;5012275;28;20149;-80
2022/11/15 09:11:26;;;;;;;16.30;8.45;;;;;;;10.13;100.00;100740.28;5010184;28;20080;-80
2022/11/15 09:13:52;;;;;;;17.38;8.50;;;;;;;10.12;100.00;100740.31;5014725;28;20033;-80
2022/11/15 09:16:17;;;;;;;17.15;8.00;;;;;;;10.07;100.00;100732.66;5010134;28;20117;-80
2022/11/15 09:18:43;;;;;;;17.75;7.85;;;;;;;10.10;100.00;100734.34;5010115;28;20049;-80
2022/11/15 09:21:09;;;;;;;18.27;7.60;;;;;;;10.18;100.00;100730.69;5012105;28;20022;-80
2022/11/15 09:23:34;;;;;;;15.30;8.23;;;;;;;10.32;100.00;100729.50;5011778;28;20480;-80
2022/11/15 09:26:02;;;;;;;16.70;8.35;;;;;;;10.41;100.00;100727.53;5014071;28;20052;-80
2022/11/15 09:28:28;;;;;;;18.17;8.90;;;;;;;10.43;100.00;100717.16;5011992;28;20025;-80
2022/11/15 09:31:01;;;;;;;17.20;8.77;;;;;;;10.44;100.00;100716.25;5013908;28;20080;-80
2022/11/15 09:33:27;;;;;;;16.55;8.85;;;;;;;10.48;100.00;100710.97;5012111;28;20538;-80
2022/11/15 09:35:53;;;;;;;14.88;8.65;;;;;;;10.45;100.00;100707.56;4991410;28;20033;-80
2022/11/15 09:38:19;;;;;;;16.67;9.43;;;;;;;10.44;100.00;100700.72;5013864;28;20030;-80
2022/11/15 09:40:50;;;;;;;18.13;8.73;;;;;;;10.42;100.00;100707.66;5011127;28;20985;-80
2022/11/15 09:43:25;;;;;;;15.25;8.23;;;;;;;10.45;100.00;100715.34;4994493;28;20512;-80
2022/11/15 09:46:20;;;;;;;15.95;8.35;;;;;;;10.49;100.00;100707.47;4992736;28;20033;-81
2022/11/15 09:48:57;;;;;;;14.30;7.90;;;;;;;10.58;100.00;100701.19;5007740;28;20014;-80
2022/11/15 09:51:36;;;;;;;11.98;7.68;;;;;;;10.59;100.00;100702.91;5004313;28;20030;-80
2022/11/15 09:54:07;;;;;;;13.85;7.80;;;;;;;10.60;100.00;100704.59;5001759;28;20396;-80
2022/11/15 09:56:36;;;;;;;12.32;6.38;;;;;;;10.56;100.00;100703.00;5009800;28;20038;-80
2022/11/15 09:59:18;;;;;;;12.90;6.78;;;;;;;10.51;100.00;100694.47;5010085;28;20646;-80
2022/11/15 10:02:11;;;;;;;13.82;6.53;;;;;;;10.49;100.00;100704.03;5006958;28;20084;-79
2022/11/15 10:04:37;;;;;;;11.50;6.15;;;;;;;10.45;100.00;100698.06;5008934;28;20112;-80
2022/11/15 10:07:27;;;;;;;11.32;6.03;;;;;;;10.44;100.00;100696.34;5001083;28;20026;-80
2022/11/15 10:10:07;;;;;;;9.40;5.43;;;;;;;10.41;100.00;100682.66;5005052;28;20039;-80
2022/11/15 10:12:33;;;;;;;7.75;4.93;;;;;;;10.38;100.00;100695.66;5004839;28;20112;-80
2022/11/15 10:15:06;;;;;;;10.90;4.90;;;;;;;10.36;100.00;100685.38;5008093;28;20109;-79
2022/11/15 10:17:50;;;;;;;9.03;4.50;;;;;;;10.35;100.00;100685.41;5008049;28;20032;-79
2022/11/15 10:20:15;;;;;;;9.70;4.40;;;;;;;10.30;100.00;100685.53;5010439;28;20063;-80
2022/11/15 10:22:52;;;;;;;8.93;4.20;;;;;;;10.27;100.00;100678.66;5009008;28;20021;-80
2022/11/15 10:25:28;;;;;;;8.07;3.90;;;;;;;10.26;100.00;100676.97;5009991;28;20848;-80
2022/11/15 10:28:01;;;;;;;8.68;3.72;;;;;;;10.27;100.00;100683.00;5010224;28;20022;-80
2022/11/15 10:30:38;;;;;;;7.40;3.17;;;;;;;10.29;100.00;100676.91;5008932;28;20484;-81
2022/11/15 10:33:16;;;;;;;4.95;2.90;;;;;;;10.28;100.00;100682.97;5009875;28;20034;-80
2022/11/15 10:35:42;;;;;;;5.38;2.65;;;;;;;10.24;100.00;100683.06;5006804;28;20076;-80
2022/11/15 10:38:10;;;;;;;8.80;3.40;;;;;;;10.22;100.00;100666.72;5006190;28;20030;-80
2022/11/15 10:40:37;;;;;;;6.28;2.83;;;;;;;10.18;100.00;100663.34;5010626;28;20079;-80
2022/11/15 10:43:18;;;;;;;6.82;2.80;;;;;;;10.21;100.00;100654.66;5009268;28;20373;-80
2022/11/15 10:45:45;;;;;;;4.88;2.60;;;;;;;10.20;100.00;100646.03;5012569;28;20041;-80
2022/11/15 10:48:13;;;;;;;6.18;2.85;;;;;;;10.24;100.00;100651.97;5016344;28;20056;-80
2022/11/15 10:50:40;;;;;;;6.60;2.50;;;;;;;10.25;100.00;100648.50;5010395;28;20033;-80
2022/11/15 10:53:22;;;;;;;5.80;2.55;;;;;;;10.32;100.00;100656.97;5009490;28;20029;-80
2022/11/15 10:55:50;;;;;;;7.22;2.70;;;;;;;10.34;100.00;100647.41;5002754;28;20377;-80
2022/11/15 10:58:31;;;;;;;6.07;2.58;;;;;;;10.42;100.00;100646.34;5009947;28;20084;-80
2022/11/15 11:01:09;;;;;;;5.20;2.42;;;;;;;10.45;100.00;100637.63;5008419;28;20080;-80
2022/11/15 11:03:40;;;;;;;6.38;2.40;;;;;;;10.47;100.00;100634.09;5005626;28;20493;-80
2022/11/15 11:06:17;;;;;;;6.68;2.30;;;;;;;10.53;100.00;100628.75;5007434;28;20034;-80
2022/11/15 11:08:55;;;;;;;5.70;2.47;;;;;;;10.57;100.00;100632.13;5005765;28;20368;-80
2022/11/15 11:11:21;;;;;;;5.60;2.30;;;;;;;10.58;100.00;100626.88;4987221;28;20055;-80
2022/11/15 11:13:47;;;;;;;4.75;2.25;;;;;;;10.59;100.00;100636.34;5010413;28;20032;-80
2022/11/15 11:16:36;;;;;;;4.80;2.30;;;;;;;10.59;100.00;100628.59;4992871;28;20040;-80
2022/11/15 11:19:14;;;;;;;4.35;1.90;;;;;;;10.59;100.00;100610.44;5010306;28;20046;-79
2022/11/15 11:21:52;;;;;;;3.70;2.00;;;;;;;10.61;100.00;100616.44;5008405;28;20037;-79
2022/11/15 11:24:55;;;;;;;4.82;2.33;;;;;;;10.63;100.00;100608.63;5002488;28;20030;-80
2022/11/15 11:28:16;;;;;;;5.57;2.10;;;;;;;10.63;100.00;100606.88;5006310;28;20072;-79